Pagina principale
METAR-TAF:

METAR-TAF

Aeroporti :

Portorose, Slovenia

Aeroporto di Portorose-Secovlje

latitudine: 45-31N, longitudine: 013-34E, altezza: 95 m

Osservazione

Il bollettino è stato emesso 15 minuti fa, alle 06:30 UTC
Vento 2 kt da direzioni variabili
Temperature 21°C
Umidità 46%
Pressione 1004 hPa
Visibilità 10 km o più
nessuna nube inferiore a 1500 m e nessun cumulonembo

METAR: LJPZ 260630Z VRB02KT CAVOK 21/09 Q1004

Ora: 08:45 (06:45 UTC)

Previsione

Il bollettino è stato emesso 1 ora e 45 minuti fa, alle 05:00 UTC
Previsione valida dal 26 alle 06 UTC al 26 alle 15 UTC
Vento 5 kt da est/sud-est
Visibilità 10 km o più
nessuna nube inferiore a 1500 m e nessun cumulonembo
Evoluzione graduale
dal 26 alle 06 UTC al 26 alle 08 UTC
Vento 10 kt da nord/nord-ovest

TAF: LJPZ 260500Z 2606/2615 12005KT CAVOK BECMG 2606/2608 34010KT

Osservazioni e previsioni meteorologiche di più di 4000 aeroporti (messaggi METAR e TAF).

Le stazioni disponibili sono rappresentate dai dischi gialli e rossi sulla carta.

Puntare il mouse per vedere il nome della stazione.

Clicca sopra per visualizzare le osservazioni e previsioni meteorologiche.

Per cambiare la mappa : fare clic sui pulsanti verdi con una croce nera per ingrandire, il pulsante verde con un trattino per diminuire, o sulla freccia verde per le mappe adiacenti.


METAR-TAF: